Wetterdaten: Woche 19.06.17 - 25.06.17 (KW25)
Datum Zeit Temp. Aussen Temp. o. S. +5cm Feuchte Auss BlattFeu 1 Luftdruck Regen Sonnenschein Regendauer Solar Windben Empfang
19.06.2017 00:00 21,3 C 19,1 C 16,8 C 76 % 0 lf 1021,1 hPa 0,0 l/m 0,00 h 0,00 h 0 W/m 1,1 km/h (1 Bft) 93,58 %
19.06.2017 01:00 19,7 C 18,0 C 15,7 C 82 % 0 lf 1021,1 hPa 0,0 l/m 0,00 h 0,00 h 0 W/m 0,0 km/h (0 Bft) 95,66 %
19.06.2017 02:00 18,5 C 17,2 C 14,8 C 85 % 1 lf 1021,0 hPa 0,0 l/m 0,00 h 0,00 h 0 W/m 0,9 km/h (0 Bft) 95,51 %
19.06.2017 03:00 17,6 C 16,8 C 14,2 C 89 % 1 lf 1020,8 hPa 0,0 l/m 0,00 h 0,00 h 0 W/m 0,2 km/h (0 Bft) 98,01 %
19.06.2017 04:00 16,8 C 15,4 C 13,8 C 90 % 2 lf 1020,6 hPa 0,0 l/m 0,00 h 0,00 h 0 W/m 0,1 km/h (0 Bft) 94,76 %
19.06.2017 05:00 16,1 C 15,0 C 13,3 C 91 % 2 lf 1020,5 hPa 0,0 l/m 0,47 h 0,00 h 22 W/m 0,4 km/h (0 Bft) 98,65 %
19.06.2017 06:00 15,8 C 16,3 C 14,0 C 93 % 2 lf 1020,5 hPa 0,0 l/m 1,00 h 0,00 h 111 W/m 3,6 km/h (1 Bft) 96,30 %
19.06.2017 07:00 16,9 C 18,7 C 16,5 C 93 % 0 lf 1020,5 hPa 0,0 l/m 1,00 h 0,00 h 268 W/m 12,8 km/h (3 Bft) 94,52 %
19.06.2017 08:00 19,9 C 25,2 C 18,8 C 82 % 0 lf 1020,5 hPa 0,0 l/m 1,00 h 0,00 h 429 W/m 13,3 km/h (3 Bft) 97,93 %
19.06.2017 09:00 24,0 C 31,0 C 21,9 C 67 % 0 lf 1020,3 hPa 0,0 l/m 1,00 h 0,00 h 583 W/m 16,3 km/h (3 Bft) 97,22 %
19.06.2017 10:00 26,7 C 33,7 C 31,7 C 59 % 0 lf 1019,9 hPa 0,0 l/m 1,00 h 0,00 h 721 W/m 14,2 km/h (3 Bft) 94,80 %
19.06.2017 11:00 28,9 C 35,4 C 34,7 C 52 % 0 lf 1019,5 hPa 0,0 l/m 1,00 h 0,00 h 832 W/m 16,4 km/h (3 Bft) 98,22 %
19.06.2017 12:00 29,8 C 35,8 C 35,2 C 45 % 0 lf 1019,1 hPa 0,0 l/m 1,00 h 0,00 h 878 W/m 16,6 km/h (3 Bft) 96,08 %
19.06.2017 13:00 30,9 C 37,1 C 32,6 C 43 % 0 lf 1018,5 hPa 0,0 l/m 1,00 h 0,00 h 934 W/m 16,4 km/h (3 Bft) 95,51 %
19.06.2017 14:00 31,6 C 36,6 C 38,9 C 40 % 0 lf 1017,8 hPa 0,0 l/m 1,00 h 0,00 h 911 W/m 14,6 km/h (3 Bft) 97,01 %
19.06.2017 15:00 32,1 C 36,0 C 42,5 C 39 % 0 lf 1017,2 hPa 0,0 l/m 1,00 h 0,00 h 843 W/m 15,3 km/h (3 Bft) 96,67 %
19.06.2017 16:00 32,3 C 32,9 C 43,5 C 39 % 0 lf 1016,6 hPa 0,0 l/m 1,00 h 0,00 h 733 W/m 12,9 km/h (3 Bft) 96,36 %
19.06.2017 17:00 32,6 C 32,5 C 34,1 C 37 % 0 lf 1016,1 hPa 0,0 l/m 1,00 h 0,00 h 596 W/m 11,7 km/h (2 Bft) 96,23 %
19.06.2017 18:00 31,8 C 31,4 C 28,9 C 38 % 0 lf 1015,7 hPa 0,0 l/m 1,00 h 0,00 h 433 W/m 11,4 km/h (2 Bft) 97,01 %
19.06.2017 19:00 30,7 C 30,4 C 27,5 C 40 % 0 lf 1015,4 hPa 0,0 l/m 1,00 h 0,00 h 258 W/m 8,8 km/h (2 Bft) 95,65 %
19.06.2017 20:00 29,8 C 28,4 C 24,5 C 44 % 0 lf 1015,3 hPa 0,0 l/m 0,97 h 0,00 h 97 W/m 3,1 km/h (1 Bft) 97,86 %
19.06.2017 21:00 27,8 C 25,3 C 22,2 C 53 % 0 lf 1015,3 hPa 0,0 l/m 0,63 h 0,00 h 34 W/m 1,5 km/h (1 Bft) 95,36 %
19.06.2017 22:00 25,4 C 22,6 C 19,9 C 62 % 0 lf 1015,5 hPa 0,0 l/m 0,00 h 0,00 h 10 W/m 0,7 km/h (0 Bft) 97,51 %
19.06.2017 23:00 23,2 C 20,6 C 18,3 C 68 % 0 lf 1015,5 hPa 0,0 l/m 0,00 h 0,00 h 0 W/m 0,0 km/h (0 Bft) 96,58 %
20.06.2017 00:00 21,5 C 19,3 C 17,2 C 73 % 0 lf 1015,4 hPa 0,0 l/m 0,00 h 0,00 h 0 W/m 1,0 km/h (0 Bft) 96,26 %
20.06.2017 01:00 20,1 C 18,1 C 16,3 C 76 % 0 lf 1015,1 hPa 0,0 l/m 0,00 h 0,00 h 0 W/m 0,0 km/h (0 Bft) 96,02 %
20.06.2017 02:00 19,0 C 17,2 C 15,6 C 80 % 0 lf 1015,1 hPa 0,0 l/m 0,00 h 0,00 h 0 W/m 1,7 km/h (1 Bft) 96,98 %
20.06.2017 03:00 18,3 C 16,7 C 14,8 C 82 % 0 lf 1015,0 hPa 0,0 l/m 0,00 h 0,00 h 0 W/m 0,8 km/h (0 Bft) 96,48 %
20.06.2017 04:00 17,5 C 15,9 C 14,2 C 84 % 0 lf 1015,0 hPa 0,0 l/m 0,00 h 0,00 h 0 W/m 0,1 km/h (0 Bft) 95,37 %
20.06.2017 05:00 16,8 C 15,5 C 13,9 C 85 % 1 lf 1014,9 hPa 0,0 l/m 0,47 h 0,00 h 19 W/m 0,0 km/h (0 Bft) 95,92 %
20.06.2017 06:00 16,4 C 16,4 C 14,8 C 88 % 1 lf 1015,0 hPa 0,0 l/m 1,00 h 0,00 h 91 W/m 1,3 km/h (1 Bft) 98,49 %
20.06.2017 07:00 17,4 C 19,2 C 17,5 C 92 % 0 lf 1015,2 hPa 0,0 l/m 1,00 h 0,00 h 231 W/m 5,7 km/h (1 Bft) 94,94 %
20.06.2017 08:00 20,0 C 27,2 C 20,1 C 89 % 0 lf 1015,4 hPa 0,0 l/m 1,00 h 0,00 h 397 W/m 6,9 km/h (2 Bft) 96,04 %
20.06.2017 09:00 23,9 C 36,1 C 23,4 C 73 % 0 lf 1015,5 hPa 0,0 l/m 1,00 h 0,00 h 563 W/m 6,6 km/h (2 Bft) 97,88 %
20.06.2017 10:00 27,5 C 38,9 C 31,6 C 64 % 0 lf 1015,8 hPa 0,0 l/m 1,00 h 0,00 h 743 W/m 11,0 km/h (2 Bft) 96,27 %
20.06.2017 11:00 28,8 C 38,1 C 33,0 C 61 % 0 lf 1015,7 hPa 0,0 l/m 1,00 h 0,00 h 793 W/m 15,5 km/h (3 Bft) 94,71 %
20.06.2017 12:00 30,0 C 38,9 C 33,5 C 56 % 0 lf 1015,7 hPa 0,0 l/m 1,00 h 0,00 h 850 W/m 16,8 km/h (3 Bft) 99,00 %
20.06.2017 13:00 31,0 C 38,7 C 32,5 C 51 % 0 lf 1015,6 hPa 0,0 l/m 1,00 h 0,00 h 883 W/m 18,3 km/h (3 Bft) 94,66 %
20.06.2017 14:00 31,1 C 36,5 C 35,6 C 48 % 0 lf 1015,4 hPa 0,0 l/m 0,90 h 0,00 h 723 W/m 17,9 km/h (3 Bft) 97,37 %
20.06.2017 15:00 31,5 C 37,0 C 38,6 C 46 % 0 lf 1015,3 hPa 0,0 l/m 1,00 h 0,00 h 802 W/m 18,9 km/h (3 Bft) 96,65 %
20.06.2017 16:00 31,6 C 33,7 C 37,2 C 46 % 0 lf 1015,2 hPa 0,0 l/m 1,00 h 0,00 h 659 W/m 18,7 km/h (3 Bft) 95,76 %
20.06.2017 17:00 31,6 C 32,7 C 32,4 C 47 % 0 lf 1015,0 hPa 0,0 l/m 1,00 h 0,00 h 579 W/m 20,1 km/h (4 Bft) 97,51 %
20.06.2017 18:00 30,4 C 30,6 C 29,1 C 52 % 0 lf 1014,9 hPa 0,0 l/m 1,00 h 0,00 h 321 W/m 20,5 km/h (4 Bft) 97,13 %
20.06.2017 19:00 28,9 C 28,8 C 27,2 C 55 % 0 lf 1015,1 hPa 0,0 l/m 0,73 h 0,00 h 211 W/m 25,7 km/h (4 Bft) 95,25 %
20.06.2017 20:00 27,6 C 27,1 C 25,8 C 58 % 0 lf 1015,5 hPa 0,0 l/m 1,00 h 0,00 h 120 W/m 22,8 km/h (4 Bft) 97,88 %
20.06.2017 21:00 26,1 C 25,3 C 23,9 C 61 % 0 lf 1016,2 hPa 0,0 l/m 0,63 h 0,00 h 39 W/m 17,1 km/h (3 Bft) 95,51 %
20.06.2017 22:00 24,5 C 23,4 C 22,1 C 68 % 0 lf 1016,6 hPa 0,0 l/m 0,00 h 0,00 h 10 W/m 13,5 km/h (3 Bft) 98,22 %
20.06.2017 23:00 23,3 C 22,1 C 20,8 C 71 % 0 lf 1016,9 hPa 0,0 l/m 0,00 h 0,00 h 0 W/m 12,1 km/h (2 Bft) 95,95 %
21.06.2017 00:00 22,1 C 20,6 C 19,3 C 74 % 0 lf 1017,0 hPa 0,0 l/m 0,00 h 0,00 h 0 W/m 9,7 km/h (2 Bft) 97,04 %
21.06.2017 01:00 20,8 C 19,6 C 18,3 C 75 % 0 lf 1016,9 hPa 0,0 l/m 0,00 h 0,00 h 0 W/m 10,8 km/h (2 Bft) 95,36 %
21.06.2017 02:00 19,9 C 18,9 C 17,6 C 74 % 0 lf 1017,0 hPa 0,0 l/m 0,00 h 0,00 h 0 W/m 12,3 km/h (3 Bft) 96,77 %
21.06.2017 03:00 18,9 C 18,0 C 16,8 C 73 % 0 lf 1017,0 hPa 0,0 l/m 0,00 h 0,00 h 0 W/m 13,5 km/h (3 Bft) 97,02 %
21.06.2017 04:00 18,0 C 17,0 C 15,9 C 76 % 0 lf 1017,0 hPa 0,0 l/m 0,00 h 0,00 h 0 W/m 10,7 km/h (2 Bft) 97,44 %
21.06.2017 05:00 17,3 C 16,7 C 15,6 C 78 % 0 lf 1016,8 hPa 0,0 l/m 0,43 h 0,00 h 24 W/m 10,7 km/h (2 Bft) 94,43 %
21.06.2017 06:00 16,9 C 17,0 C 15,6 C 79 % 0 lf 1016,8 hPa 0,0 l/m 0,93 h 0,00 h 82 W/m 10,3 km/h (2 Bft) 98,40 %
21.06.2017 07:00 17,2 C 18,1 C 16,5 C 78 % 0 lf 1017,0 hPa 0,0 l/m 1,00 h 0,00 h 243 W/m 14,5 km/h (3 Bft) 97,51 %
21.06.2017 08:00 18,5 C 23,8 C 18,2 C 75 % 0 lf 1017,0 hPa 0,0 l/m 1,00 h 0,00 h 401 W/m 13,5 km/h (3 Bft) 93,31 %
21.06.2017 09:00 20,9 C 30,3 C 20,9 C 70 % 0 lf 1017,0 hPa 0,0 l/m 1,00 h 0,00 h 533 W/m 13,5 km/h (3 Bft) 97,24 %
21.06.2017 10:00 23,7 C 32,9 C 28,0 C 64 % 0 lf 1016,6 hPa 0,0 l/m 1,00 h 0,00 h 642 W/m 12,6 km/h (3 Bft) 99,15 %
21.06.2017 11:00 26,1 C 35,6 C 30,3 C 60 % 0 lf 1016,4 hPa 0,0 l/m 1,00 h 0,00 h 736 W/m 12,9 km/h (3 Bft) 93,68 %
21.06.2017 12:00 28,1 C 37,3 C 32,5 C 55 % 0 lf 1016,3 hPa 0,0 l/m 1,00 h 0,00 h 821 W/m 12,0 km/h (2 Bft) 97,51 %
21.06.2017 13:00 28,9 C 36,6 C 30,7 C 53 % 0 lf 1016,0 hPa 0,0 l/m 1,00 h 0,00 h 878 W/m 16,9 km/h (3 Bft) 96,73 %
21.06.2017 14:00 29,1 C 35,5 C 34,4 C 52 % 0 lf 1015,5 hPa 0,0 l/m 1,00 h 0,00 h 838 W/m 18,5 km/h (3 Bft) 96,79 %
21.06.2017 15:00 30,0 C 34,9 C 36,0 C 49 % 0 lf 1014,8 hPa 0,0 l/m 1,00 h 0,00 h 720 W/m 15,0 km/h (3 Bft) 95,23 %
21.06.2017 16:00 30,5 C 32,8 C 36,8 C 48 % 0 lf 1014,2 hPa 0,0 l/m 1,00 h 0,00 h 694 W/m 16,9 km/h (3 Bft) 96,94 %
21.06.2017 17:00 30,9 C 32,1 C 31,8 C 47 % 0 lf 1013,6 hPa 0,0 l/m 1,00 h 0,00 h 556 W/m 16,8 km/h (3 Bft) 96,56 %
21.06.2017 18:00 30,8 C 31,2 C 29,3 C 45 % 0 lf 1013,3 hPa 0,0 l/m 1,00 h 0,00 h 404 W/m 11,8 km/h (2 Bft) 96,44 %
21.06.2017 19:00 30,1 C 29,8 C 27,8 C 48 % 0 lf 1013,2 hPa 0,0 l/m 1,00 h 0,00 h 250 W/m 11,6 km/h (2 Bft) 95,79 %
21.06.2017 20:00 28,9 C 28,2 C 26,5 C 52 % 0 lf 1013,3 hPa 0,0 l/m 0,83 h 0,00 h 108 W/m 9,9 km/h (2 Bft) 98,58 %
21.06.2017 21:00 27,8 C 26,3 C 24,2 C 57 % 0 lf 1013,1 hPa 0,0 l/m 0,63 h 0,00 h 41 W/m 5,2 km/h (1 Bft) 94,09 %
21.06.2017 22:00 25,9 C 23,0 C 20,4 C 62 % 0 lf 1013,5 hPa 0,0 l/m 0,00 h 0,00 h 10 W/m 0,8 km/h (0 Bft) 97,08 %
21.06.2017 23:00 23,7 C 21,1 C 18,7 C 69 % 0 lf 1013,5 hPa 0,0 l/m 0,00 h 0,00 h 0 W/m 0,0 km/h (0 Bft) 97,93 %
22.06.2017 00:00 22,0 C 19,8 C 17,6 C 75 % 0 lf 1013,3 hPa 0,0 l/m 0,00 h 0,00 h 0 W/m 0,0 km/h (0 Bft) 95,86 %
22.06.2017 01:00 20,7 C 19,4 C 17,3 C 81 % 1 lf 1013,1 hPa 0,0 l/m 0,00 h 0,00 h 0 W/m 0,0 km/h (0 Bft) 95,87 %
22.06.2017 02:00 19,9 C 19,4 C 17,1 C 83 % 0 lf 1012,4 hPa 0,0 l/m 0,00 h 0,00 h 0 W/m 4,7 km/h (1 Bft) 97,86 %
22.06.2017 03:00 19,7 C 19,6 C 17,1 C 83 % 0 lf 1012,0 hPa 0,0 l/m 0,00 h 0,00 h 0 W/m 4,7 km/h (1 Bft) 94,52 %
22.06.2017 04:00 19,7 C 19,4 C 17,4 C 83 % 0 lf 1011,6 hPa 0,0 l/m 0,00 h 0,00 h 0 W/m 6,6 km/h (2 Bft) 98,93 %
22.06.2017 05:00 19,5 C 19,3 C 17,7 C 84 % 0 lf 1011,3 hPa 0,0 l/m 0,40 h 0,00 h 23 W/m 10,1 km/h (2 Bft) 95,64 %
22.06.2017 06:00 19,9 C 20,3 C 18,9 C 84 % 0 lf 1011,2 hPa 0,0 l/m 0,80 h 0,00 h 81 W/m 11,8 km/h (2 Bft) 96,90 %
22.06.2017 07:00 20,8 C 21,9 C 20,5 C 83 % 0 lf 1010,9 hPa 0,0 l/m 0,93 h 0,00 h 207 W/m 14,8 km/h (3 Bft) 98,03 %
22.06.2017 08:00 22,8 C 26,0 C 23,3 C 78 % 0 lf 1010,5 hPa 0,0 l/m 0,93 h 0,00 h 329 W/m 14,8 km/h (3 Bft) 95,67 %
22.06.2017 09:00 26,6 C 33,6 C 26,6 C 70 % 0 lf 1010,0 hPa 0,0 l/m 1,00 h 0,00 h 531 W/m 12,4 km/h (3 Bft) 95,78 %
22.06.2017 10:00 31,1 C 38,7 C 35,2 C 58 % 0 lf 1009,7 hPa 0,0 l/m 1,00 h 0,00 h 672 W/m 15,6 km/h (3 Bft) 98,84 %
22.06.2017 11:00 33,5 C 40,5 C 38,0 C 50 % 0 lf 1009,4 hPa 0,0 l/m 1,00 h 0,00 h 764 W/m 20,6 km/h (4 Bft) 95,94 %
22.06.2017 12:00 34,8 C 40,7 C 39,1 C 50 % 0 lf 1009,2 hPa 0,0 l/m 1,00 h 0,00 h 726 W/m 20,9 km/h (4 Bft) 95,71 %
22.06.2017 13:00 35,5 C 41,7 C 37,9 C 48 % 0 lf 1008,8 hPa 0,0 l/m 1,00 h 0,00 h 783 W/m 19,1 km/h (3 Bft) 96,64 %
22.06.2017 14:00 36,0 C 40,4 C 40,7 C 44 % 0 lf 1008,1 hPa 0,0 l/m 1,00 h 0,00 h 781 W/m 26,9 km/h (4 Bft) 97,50 %
22.06.2017 15:00 36,0 C 39,7 C 43,2 C 43 % 0 lf 1007,3 hPa 0,0 l/m 1,00 h 0,00 h 764 W/m 28,3 km/h (4 Bft) 97,23 %
22.06.2017 16:00 35,9 C 37,2 C 41,2 C 43 % 0 lf 1006,7 hPa 0,0 l/m 1,00 h 0,00 h 579 W/m 29,4 km/h (5 Bft) 94,93 %
22.06.2017 17:00 35,1 C 35,9 C 36,0 C 46 % 0 lf 1006,3 hPa 0,0 l/m 0,73 h 0,00 h 398 W/m 27,1 km/h (4 Bft) 97,74 %
22.06.2017 18:00 32,9 C 32,6 C 31,4 C 48 % 0 lf 1006,4 hPa 0,0 l/m 0,60 h 0,00 h 289 W/m 26,4 km/h (4 Bft) 96,45 %
22.06.2017 19:00 29,1 C 28,1 C 26,2 C 55 % 2 lf 1007,5 hPa 0,0 l/m 0,33 h 0,13 h 142 W/m 23,5 km/h (4 Bft) 96,21 %
22.06.2017 20:00 26,2 C 25,7 C 24,7 C 64 % 0 lf 1008,1 hPa 0,0 l/m 0,50 h 0,10 h 92 W/m 17,5 km/h (3 Bft) 96,71 %
22.06.2017 21:00 24,1 C 23,0 C 21,9 C 71 % 0 lf 1009,5 hPa 0,0 l/m 0,60 h 0,00 h 31 W/m 24,6 km/h (4 Bft) 96,56 %
22.06.2017 22:00 22,1 C 21,6 C 20,4 C 70 % 0 lf 1010,4 hPa 0,0 l/m 0,00 h 0,00 h 19 W/m 26,6 km/h (4 Bft) 95,83 %
22.06.2017 23:00 21,0 C 20,4 C 19,0 C 73 % 0 lf 1011,1 hPa 0,0 l/m 0,00 h 0,00 h 0 W/m 24,3 km/h (4 Bft) 97,43 %
23.06.2017 00:00 20,0 C 19,4 C 18,4 C 76 % 0 lf 1011,9 hPa 0,0 l/m 0,00 h 0,00 h 0 W/m 20,1 km/h (4 Bft) 94,53 %
23.06.2017 01:00 19,9 C 19,7 C 18,9 C 79 % 0 lf 1012,3 hPa 0,0 l/m 0,00 h 0,00 h 0 W/m 19,7 km/h (3 Bft) 98,13 %
23.06.2017 02:00 19,8 C 19,4 C 18,7 C 79 % 0 lf 1012,4 hPa 0,0 l/m 0,00 h 0,00 h 0 W/m 12,3 km/h (3 Bft) 96,58 %
23.06.2017 03:00 19,5 C 19,4 C 18,3 C 81 % 0 lf 1012,4 hPa 0,0 l/m 0,00 h 0,00 h 0 W/m 11,0 km/h (2 Bft) 95,23 %
23.06.2017 04:00 19,4 C 19,4 C 18,3 C 82 % 0 lf 1012,3 hPa 0,0 l/m 0,00 h 0,00 h 0 W/m 13,0 km/h (3 Bft) 97,44 %
23.06.2017 05:00 19,3 C 19,0 C 18,3 C 82 % 0 lf 1012,3 hPa 0,0 l/m 0,00 h 0,00 h 15 W/m 10,1 km/h (2 Bft) 98,50 %
23.06.2017 06:00 19,1 C 19,1 C 18,3 C 82 % 0 lf 1012,7 hPa 0,0 l/m 0,00 h 0,00 h 35 W/m 15,5 km/h (3 Bft) 93,61 %
23.06.2017 07:00 19,2 C 20,0 C 19,2 C 82 % 0 lf 1013,3 hPa 0,0 l/m 0,23 h 0,00 h 114 W/m 16,2 km/h (3 Bft) 98,01 %
23.06.2017 08:00 19,8 C 22,4 C 20,6 C 81 % 0 lf 1013,8 hPa 0,0 l/m 0,73 h 0,00 h 246 W/m 15,6 km/h (3 Bft) 96,87 %
23.06.2017 09:00 20,8 C 24,7 C 22,1 C 79 % 0 lf 1014,0 hPa 0,0 l/m 1,00 h 0,00 h 344 W/m 13,8 km/h (3 Bft) 95,95 %
23.06.2017 10:00 22,2 C 25,2 C 24,5 C 75 % 0 lf 1014,3 hPa 0,0 l/m 0,43 h 0,00 h 347 W/m 15,0 km/h (3 Bft) 96,22 %
23.06.2017 11:00 22,8 C 25,1 C 25,1 C 72 % 0 lf 1014,6 hPa 0,0 l/m 0,10 h 0,00 h 314 W/m 17,1 km/h (3 Bft) 97,51 %
23.06.2017 12:00 23,5 C 26,7 C 26,5 C 69 % 0 lf 1014,8 hPa 0,0 l/m 0,43 h 0,00 h 411 W/m 20,1 km/h (4 Bft) 97,01 %
23.06.2017 13:00 25,3 C 29,8 C 28,7 C 62 % 0 lf 1014,8 hPa 0,0 l/m 0,77 h 0,00 h 643 W/m 21,6 km/h (4 Bft) 95,23 %
23.06.2017 14:00 25,9 C 29,0 C 30,0 C 59 % 0 lf 1014,6 hPa 0,0 l/m 1,00 h 0,00 h 863 W/m 24,7 km/h (4 Bft) 97,15 %
23.06.2017 15:00 26,4 C 29,9 C 33,1 C 57 % 0 lf 1014,5 hPa 0,0 l/m 0,93 h 0,00 h 764 W/m 22,6 km/h (4 Bft) 98,53 %
23.06.2017 16:00 27,2 C 28,7 C 35,0 C 53 % 0 lf 1014,4 hPa 0,0 l/m 1,00 h 0,00 h 785 W/m 24,2 km/h (4 Bft) 94,17 %
23.06.2017 17:00 26,6 C 27,4 C 28,5 C 54 % 0 lf 1014,3 hPa 0,0 l/m 0,73 h 0,00 h 490 W/m 24,6 km/h (4 Bft) 98,29 %
23.06.2017 18:00 25,7 C 25,9 C 25,4 C 55 % 0 lf 1014,2 hPa 0,0 l/m 0,73 h 0,00 h 308 W/m 22,7 km/h (4 Bft) 97,99 %
23.06.2017 19:00 25,2 C 25,6 C 24,6 C 55 % 0 lf 1014,2 hPa 0,0 l/m 1,00 h 0,00 h 286 W/m 20,3 km/h (4 Bft) 93,67 %
23.06.2017 20:00 24,4 C 24,0 C 22,5 C 56 % 0 lf 1014,4 hPa 0,0 l/m 0,90 h 0,00 h 102 W/m 19,8 km/h (3 Bft) 97,63 %
23.06.2017 21:00 22,9 C 22,3 C 20,7 C 59 % 0 lf 1014,7 hPa 0,0 l/m 0,17 h 0,00 h 21 W/m 16,0 km/h (3 Bft) 96,44 %
23.06.2017 22:00 21,4 C 20,5 C 18,9 C 62 % 0 lf 1015,2 hPa 0,0 l/m 0,00 h 0,00 h 0 W/m 14,5 km/h (3 Bft) 96,23 %
23.06.2017 23:00 20,1 C 19,2 C 17,6 C 66 % 0 lf 1015,7 hPa 0,0 l/m 0,00 h 0,00 h 0 W/m 15,3 km/h (3 Bft) 95,59 %
24.06.2017 00:00 18,8 C 18,2 C 16,7 C 70 % 0 lf 1015,9 hPa 0,0 l/m 0,00 h 0,00 h 0 W/m 21,2 km/h (4 Bft) 96,52 %
24.06.2017 01:00 17,6 C 17,0 C 15,7 C 74 % 0 lf 1016,0 hPa 0,0 l/m 0,00 h 0,00 h 3 W/m 22,2 km/h (4 Bft) 97,51 %
24.06.2017 02:00 16,6 C 16,0 C 14,6 C 77 % 0 lf 1015,7 hPa 0,0 l/m 0,00 h 0,00 h 0 W/m 15,3 km/h (3 Bft) 95,02 %
24.06.2017 03:00 15,6 C 15,0 C 13,7 C 80 % 0 lf 1015,6 hPa 0,0 l/m 0,00 h 0,00 h 3 W/m 15,2 km/h (3 Bft) 96,23 %
24.06.2017 04:00 14,9 C 14,4 C 13,1 C 82 % 0 lf 1015,4 hPa 0,0 l/m 0,00 h 0,00 h 3 W/m 17,1 km/h (3 Bft) 97,58 %
24.06.2017 05:00 14,5 C 14,4 C 13,0 C 84 % 0 lf 1015,0 hPa 0,0 l/m 0,00 h 0,00 h 13 W/m 17,6 km/h (3 Bft) 97,23 %
24.06.2017 06:00 14,7 C 14,9 C 13,7 C 84 % 0 lf 1014,8 hPa 0,0 l/m 0,23 h 0,00 h 71 W/m 20,9 km/h (4 Bft) 94,65 %
24.06.2017 07:00 15,6 C 16,5 C 15,8 C 83 % 0 lf 1014,6 hPa 0,0 l/m 0,00 h 0,00 h 117 W/m 23,8 km/h (4 Bft) 97,22 %
24.06.2017 08:00 17,0 C 20,6 C 17,3 C 80 % 0 lf 1014,6 hPa 0,0 l/m 0,70 h 0,00 h 330 W/m 25,0 km/h (4 Bft) 97,34 %
24.06.2017 09:00 19,1 C 24,9 C 19,0 C 73 % 0 lf 1014,7 hPa 0,0 l/m 0,90 h 0,00 h 573 W/m 30,2 km/h (5 Bft) 96,15 %
24.06.2017 10:00 20,9 C 25,2 C 24,3 C 67 % 0 lf 1014,5 hPa 0,0 l/m 1,00 h 0,00 h 542 W/m 26,9 km/h (4 Bft) 97,36 %
24.06.2017 11:00 20,1 C 21,1 C 21,3 C 69 % 0 lf 1014,4 hPa 0,0 l/m 0,00 h 0,00 h 234 W/m 29,3 km/h (5 Bft) 95,04 %
24.06.2017 12:00 19,5 C 20,7 C 20,9 C 74 % 0 lf 1014,7 hPa 0,0 l/m 0,00 h 0,00 h 241 W/m 30,2 km/h (5 Bft) 98,23 %
24.06.2017 13:00 19,5 C 20,8 C 21,1 C 76 % 0 lf 1014,8 hPa 0,0 l/m 0,00 h 0,00 h 254 W/m 25,7 km/h (4 Bft) 95,88 %
24.06.2017 14:00 19,5 C 21,3 C 21,5 C 77 % 0 lf 1014,8 hPa 0,0 l/m 0,17 h 0,00 h 278 W/m 24,4 km/h (4 Bft) 95,80 %
24.06.2017 15:00 20,9 C 22,7 C 23,4 C 74 % 0 lf 1014,3 hPa 0,0 l/m 0,47 h 0,00 h 447 W/m 24,1 km/h (4 Bft) 97,94 %
24.06.2017 16:00 21,1 C 22,2 C 22,3 C 72 % 0 lf 1014,0 hPa 0,0 l/m 0,27 h 0,00 h 359 W/m 24,8 km/h (4 Bft) 95,87 %
24.06.2017 17:00 21,2 C 22,3 C 22,1 C 74 % 0 lf 1013,8 hPa 0,0 l/m 1,00 h 0,00 h 718 W/m 21,0 km/h (4 Bft) 95,30 %
24.06.2017 18:00 20,9 C 21,6 C 21,6 C 76 % 0 lf 1013,5 hPa 0,0 l/m 1,00 h 0,00 h 543 W/m 18,0 km/h (3 Bft) 98,44 %
24.06.2017 19:00 20,8 C 20,8 C 19,9 C 77 % 2 lf 1013,3 hPa 0,0 l/m 0,57 h 0,07 h 242 W/m 15,3 km/h (3 Bft) 94,31 %
24.06.2017 20:00 19,3 C 18,8 C 18,0 C 84 % 1 lf 1013,0 hPa 0,0 l/m 0,00 h 0,13 h 59 W/m 9,8 km/h (2 Bft) 96,93 %
24.06.2017 21:00 18,3 C 18,0 C 16,8 C 89 % 1 lf 1012,8 hPa 0,0 l/m 0,00 h 0,03 h 17 W/m 6,0 km/h (2 Bft) 96,49 %
24.06.2017 22:00 17,9 C 17,7 C 16,7 C 91 % 1 lf 1012,8 hPa 0,0 l/m 0,00 h 0,00 h 6 W/m 3,2 km/h (1 Bft) 96,72 %
24.06.2017 23:00 17,8 C 17,8 C 16,7 C 92 % 1 lf 1012,6 hPa 0,0 l/m 0,00 h 0,00 h 5 W/m 3,7 km/h (1 Bft) 94,87 %
25.06.2017 00:00 17,7 C 17,7 C 16,5 C 92 % 1 lf 1012,1 hPa 0,0 l/m 0,00 h 0,00 h 0 W/m 4,7 km/h (1 Bft) 97,10 %
25.06.2017 01:00 17,9 C 18,2 C 16,9 C 89 % 0 lf 1011,7 hPa 0,0 l/m 0,00 h 0,00 h 0 W/m 13,3 km/h (3 Bft) 96,73 %
25.06.2017 02:00 18,6 C 18,5 C 17,2 C 85 % 0 lf 1011,3 hPa 0,0 l/m 0,00 h 0,00 h 0 W/m 13,9 km/h (3 Bft) 96,37 %
25.06.2017 03:00 18,4 C 17,4 C 16,1 C 87 % 11 lf 1011,2 hPa 0,0 l/m 0,00 h 0,43 h 0 W/m 14,0 km/h (3 Bft) 94,52 %
25.06.2017 04:00 17,1 C 16,1 C 15,0 C 93 % 15 lf 1010,9 hPa 0,2 l/m 0,00 h 0,47 h 0 W/m 18,9 km/h (3 Bft) 99,17 %
25.06.2017 05:00 16,6 C 16,1 C 15,0 C 95 % 15 lf 1010,8 hPa 0,4 l/m 0,00 h 0,23 h 5 W/m 19,4 km/h (3 Bft) 96,30 %
25.06.2017 06:00 16,5 C 16,1 C 15,0 C 96 % 15 lf 1010,6 hPa 0,0 l/m 0,00 h 0,00 h 18 W/m 20,1 km/h (4 Bft) 94,82 %
25.06.2017 07:00 16,8 C 16,8 C 15,6 C 97 % 9 lf 1010,4 hPa 0,0 l/m 0,00 h 0,00 h 54 W/m 21,2 km/h (4 Bft) 97,65 %
25.06.2017 08:00 17,6 C 19,6 C 16,4 C 95 % 1 lf 1010,3 hPa 0,0 l/m 0,37 h 0,00 h 220 W/m 25,5 km/h (4 Bft) 97,85 %
25.06.2017 09:00 18,7 C 20,2 C 18,6 C 89 % 0 lf 1010,3 hPa 0,0 l/m 0,07 h 0,00 h 174 W/m 20,3 km/h (4 Bft) 94,92 %
25.06.2017 10:00 20,1 C 24,7 C 23,0 C 82 % 0 lf 1010,8 hPa 0,0 l/m 0,73 h 0,00 h 598 W/m 28,7 km/h (4 Bft) 97,79 %
25.06.2017 11:00 21,8 C 27,8 C 26,4 C 71 % 0 lf 1011,0 hPa 0,0 l/m 0,93 h 0,00 h 777 W/m 32,7 km/h (5 Bft) 95,89 %
25.06.2017 12:00 22,7 C 25,9 C 25,8 C 65 % 0 lf 1011,1 hPa 0,0 l/m 0,47 h 0,00 h 437 W/m 30,1 km/h (5 Bft) 96,84 %
25.06.2017 13:00 21,3 C 22,2 C 22,3 C 69 % 0 lf 1011,6 hPa 0,0 l/m 0,00 h 0,00 h 219 W/m 23,6 km/h (4 Bft) 96,40 %
25.06.2017 14:00 20,6 C 21,8 C 21,7 C 71 % 0 lf 1011,9 hPa 0,0 l/m 0,03 h 0,00 h 228 W/m 25,6 km/h (4 Bft) 96,72 %
25.06.2017 15:00 20,9 C 22,1 C 22,1 C 70 % 0 lf 1012,0 hPa 0,0 l/m 0,10 h 0,00 h 226 W/m 21,8 km/h (4 Bft) 96,20 %
25.06.2017 16:00 21,0 C 22,3 C 22,4 C 70 % 0 lf 1012,0 hPa 0,0 l/m 0,10 h 0,00 h 236 W/m 20,0 km/h (4 Bft) 95,91 %
25.06.2017 17:00 22,2 C 23,3 C 25,0 C 67 % 0 lf 1011,5 hPa 0,0 l/m 0,63 h 0,00 h 449 W/m 22,7 km/h (4 Bft) 97,01 %
25.06.2017 18:00 22,1 C 23,2 C 23,1 C 66 % 0 lf 1011,1 hPa 0,0 l/m 0,33 h 0,00 h 237 W/m 17,3 km/h (3 Bft) 96,80 %
25.06.2017 19:00 22,2 C 22,6 C 22,0 C 65 % 0 lf 1010,8 hPa 0,0 l/m 0,03 h 0,00 h 111 W/m 19,2 km/h (3 Bft) 95,22 %
25.06.2017 20:00 21,7 C 21,6 C 20,7 C 67 % 0 lf 1010,7 hPa 0,0 l/m 0,03 h 0,00 h 51 W/m 15,6 km/h (3 Bft) 97,87 %
25.06.2017 21:00 20,8 C 20,3 C 18,9 C 70 % 0 lf 1010,9 hPa 0,0 l/m 0,10 h 0,00 h 21 W/m 14,2 km/h (3 Bft) 96,80 %
25.06.2017 22:00 19,7 C 19,1 C 17,7 C 72 % 0 lf 1011,3 hPa 0,0 l/m 0,00 h 0,00 h 4 W/m 20,6 km/h (4 Bft) 95,52 %
25.06.2017 23:00 18,6 C 17,9 C 16,5 C 75 % 0 lf 1011,4 hPa 0,0 l/m 0,00 h 0,00 h 5 W/m 19,4 km/h (3 Bft) 97,01 %
Min-Datum _ 24.06.17 24.06.17 24.06.17 19.06.17 19.06.17 22.06.17 - - - - 19.06.17 19.06.17
_ Min-Zeit 05:32 05:18 04:40 17:28 00:00 17:26 - - - - 00:02 00:02
Minimum _ 14,4 C 13,9 C 12,8 C 35 % 0 lf 1006,1 hPa - - - - 0,0 km/h (0 Bft) 14,29 %
Max-Datum _ 22.06.17 22.06.17 22.06.17 25.06.17 22.06.17 19.06.17 25.06.17 19.06.17 22.06.17 23.06.17 22.06.17 19.06.17
_ Max-Zeit 14:26 14:00 15:30 06:38 19:14 00:58 05:02 21:04 19:12 13:52 18:16 00:38
Maximum _ 36,3 C 43,3 C 45,0 C 97 % 15 lf 1021,3 hPa 0,4 l/m 0,07 h 0,03 h 1190 W/m 60,7 km/h
W-NW (7 Bft)
100,00 %
Durchschnitt _ 23,1 C 24,5 C 23,1 C 69 % 1 lf 1014,1 hPa #0,6 l/m #81:52 h #1:36 h 363 W/m 15,1 km/h (3 Bft) 96,51 %
© 2017 W. Hausmann